sensor_id;sensor_type;location;lat;lon;timestamp;temperature;humidity
55036;DHT22;40936;53.008;6.556;2022-12-26T00:01:44;14.90;99.90
55036;DHT22;40936;53.008;6.556;2022-12-26T00:04:10;14.50;99.90
55036;DHT22;40936;53.008;6.556;2022-12-26T00:06:36;14.80;99.90
55036;DHT22;40936;53.008;6.556;2022-12-26T00:09:04;14.40;99.90
55036;DHT22;40936;53.008;6.556;2022-12-26T00:11:30;14.40;99.90
55036;DHT22;40936;53.008;6.556;2022-12-26T00:13:58;14.40;99.90
55036;DHT22;40936;53.008;6.556;2022-12-26T00:16:25;14.70;99.90
55036;DHT22;40936;53.008;6.556;2022-12-26T00:18:51;14.40;99.90
55036;DHT22;40936;53.008;6.556;2022-12-26T00:21:18;14.90;99.90
55036;DHT22;40936;53.008;6.556;2022-12-26T00:23:45;14.40;99.90
55036;DHT22;40936;53.008;6.556;2022-12-26T00:26:14;14.80;99.90
55036;DHT22;40936;53.008;6.556;2022-12-26T00:28:40;14.70;99.90
55036;DHT22;40936;53.008;6.556;2022-12-26T00:31:16;15.00;99.90
55036;DHT22;40936;53.008;6.556;2022-12-26T00:33:42;14.40;99.90
55036;DHT22;40936;53.008;6.556;2022-12-26T00:36:20;14.40;99.90
55036;DHT22;40936;53.008;6.556;2022-12-26T00:38:46;14.90;99.90
55036;DHT22;40936;53.008;6.556;2022-12-26T00:41:13;14.40;99.90
55036;DHT22;40936;53.008;6.556;2022-12-26T00:43:40;14.60;99.90
55036;DHT22;40936;53.008;6.556;2022-12-26T00:46:06;15.00;99.90
55036;DHT22;40936;53.008;6.556;2022-12-26T00:48:32;14.90;99.90
55036;DHT22;40936;53.008;6.556;2022-12-26T00:50:59;14.60;99.90
55036;DHT22;40936;53.008;6.556;2022-12-26T00:53:25;14.80;99.90
55036;DHT22;40936;53.008;6.556;2022-12-26T00:55:51;14.90;99.90
55036;DHT22;40936;53.008;6.556;2022-12-26T00:58:18;14.90;99.90
55036;DHT22;40936;53.008;6.556;2022-12-26T01:00:44;14.40;99.90
55036;DHT22;40936;53.008;6.556;2022-12-26T01:03:10;13.70;99.90
55036;DHT22;40936;53.008;6.556;2022-12-26T01:05:44;14.80;99.90
55036;DHT22;40936;53.008;6.556;2022-12-26T01:08:11;15.00;99.90
55036;DHT22;40936;53.008;6.556;2022-12-26T01:10:40;14.90;99.90
55036;DHT22;40936;53.008;6.556;2022-12-26T01:13:06;14.50;99.90
55036;DHT22;40936;53.008;6.556;2022-12-26T01:15:32;14.90;99.90
55036;DHT22;40936;53.008;6.556;2022-12-26T01:17:58;14.90;99.90
55036;DHT22;40936;53.008;6.556;2022-12-26T01:20:24;14.90;99.90
55036;DHT22;40936;53.008;6.556;2022-12-26T01:22:50;14.40;99.90
55036;DHT22;40936;53.008;6.556;2022-12-26T01:25:16;14.90;99.90
55036;DHT22;40936;53.008;6.556;2022-12-26T01:27:41;14.30;99.90
55036;DHT22;40936;53.008;6.556;2022-12-26T01:30:08;14.60;99.90
55036;DHT22;40936;53.008;6.556;2022-12-26T01:32:33;15.00;99.90
55036;DHT22;40936;53.008;6.556;2022-12-26T01:34:59;14.90;99.90
55036;DHT22;40936;53.008;6.556;2022-12-26T01:37:25;14.30;99.90
55036;DHT22;40936;53.008;6.556;2022-12-26T01:39:51;14.90;99.90
55036;DHT22;40936;53.008;6.556;2022-12-26T01:42:20;14.40;99.90
55036;DHT22;40936;53.008;6.556;2022-12-26T01:45:02;14.30;99.90
55036;DHT22;40936;53.008;6.556;2022-12-26T01:47:52;14.90;99.90
55036;DHT22;40936;53.008;6.556;2022-12-26T01:52:59;15.00;99.90
55036;DHT22;40936;53.008;6.556;2022-12-26T01:55:27;15.00;99.90
55036;DHT22;40936;53.008;6.556;2022-12-26T01:58:03;14.40;99.90
55036;DHT22;40936;53.008;6.556;2022-12-26T02:00:32;15.00;99.90
55036;DHT22;40936;53.008;6.556;2022-12-26T02:02:58;14.80;99.90
55036;DHT22;40936;53.008;6.556;2022-12-26T02:05:42;15.00;99.90
55036;DHT22;40936;53.008;6.556;2022-12-26T02:08:18;14.60;99.90
55036;DHT22;40936;53.008;6.556;2022-12-26T02:10:51;14.90;99.90
55036;DHT22;40936;53.008;6.556;2022-12-26T02:13:19;14.40;99.90
55036;DHT22;40936;53.008;6.556;2022-12-26T02:15:45;14.40;99.90
55036;DHT22;40936;53.008;6.556;2022-12-26T02:18:11;14.60;99.90
55036;DHT22;40936;53.008;6.556;2022-12-26T02:23:50;14.50;99.90
55036;DHT22;40936;53.008;6.556;2022-12-26T02:27:06;14.70;99.90
55036;DHT22;40936;53.008;6.556;2022-12-26T02:40:51;14.70;99.90
55036;DHT22;40936;53.008;6.556;2022-12-26T02:43:22;14.90;99.90
55036;DHT22;40936;53.008;6.556;2022-12-26T02:49:14;14.90;99.90
55036;DHT22;40936;53.008;6.556;2022-12-26T02:52:11;14.40;99.90
55036;DHT22;40936;53.008;6.556;2022-12-26T02:55:10;14.90;99.90
55036;DHT22;40936;53.008;6.556;2022-12-26T02:58:05;14.90;99.90
55036;DHT22;40936;53.008;6.556;2022-12-26T03:00:54;14.90;99.90
55036;DHT22;40936;53.008;6.556;2022-12-26T03:03:43;14.50;99.90
55036;DHT22;40936;53.008;6.556;2022-12-26T03:06:32;14.50;99.90
55036;DHT22;40936;53.008;6.556;2022-12-26T03:09:20;14.60;99.90
55036;DHT22;40936;53.008;6.556;2022-12-26T03:12:28;14.60;99.90
55036;DHT22;40936;53.008;6.556;2022-12-26T03:15:20;14.50;99.90
55036;DHT22;40936;53.008;6.556;2022-12-26T03:17:55;14.70;99.90
55036;DHT22;40936;53.008;6.556;2022-12-26T03:20:28;14.80;99.90
55036;DHT22;40936;53.008;6.556;2022-12-26T03:23:18;14.50;99.90
55036;DHT22;40936;53.008;6.556;2022-12-26T03:25:51;14.70;99.90
55036;DHT22;40936;53.008;6.556;2022-12-26T03:28:38;14.70;99.90
55036;DHT22;40936;53.008;6.556;2022-12-26T03:31:06;14.60;99.90
55036;DHT22;40936;53.008;6.556;2022-12-26T03:33:36;15.10;99.90
55036;DHT22;40936;53.008;6.556;2022-12-26T03:36:34;14.60;99.90
55036;DHT22;40936;53.008;6.556;2022-12-26T03:46:15;15.10;99.90
55036;DHT22;40936;53.008;6.556;2022-12-26T03:49:07;14.60;99.90
55036;DHT22;40936;53.008;6.556;2022-12-26T03:52:03;14.60;99.90
55036;DHT22;40936;53.008;6.556;2022-12-26T03:58:31;14.90;99.90
55036;DHT22;40936;53.008;6.556;2022-12-26T04:01:19;15.10;99.90
55036;DHT22;40936;53.008;6.556;2022-12-26T04:04:06;14.60;99.90
55036;DHT22;40936;53.008;6.556;2022-12-26T04:07:11;14.60;99.90
55036;DHT22;40936;53.008;6.556;2022-12-26T04:10:11;15.10;99.90
55036;DHT22;40936;53.008;6.556;2022-12-26T04:12:57;14.60;99.90
55036;DHT22;40936;53.008;6.556;2022-12-26T04:15:52;15.10;99.90
55036;DHT22;40936;53.008;6.556;2022-12-26T04:19:05;15.00;99.90
55036;DHT22;40936;53.008;6.556;2022-12-26T04:24:43;14.60;99.90
55036;DHT22;40936;53.008;6.556;2022-12-26T04:27:31;14.80;99.90
55036;DHT22;40936;53.008;6.556;2022-12-26T04:30:16;14.60;99.90
55036;DHT22;40936;53.008;6.556;2022-12-26T04:33:09;15.20;99.90
55036;DHT22;40936;53.008;6.556;2022-12-26T04:36:00;14.70;99.90
55036;DHT22;40936;53.008;6.556;2022-12-26T04:38:52;14.60;99.90
55036;DHT22;40936;53.008;6.556;2022-12-26T04:41:38;15.20;99.90
55036;DHT22;40936;53.008;6.556;2022-12-26T04:44:25;15.00;99.90
55036;DHT22;40936;53.008;6.556;2022-12-26T04:46:52;15.00;99.90
55036;DHT22;40936;53.008;6.556;2022-12-26T04:49:18;15.10;99.90
55036;DHT22;40936;53.008;6.556;2022-12-26T04:52:11;14.60;99.90
55036;DHT22;40936;53.008;6.556;2022-12-26T04:54:37;15.10;99.90
55036;DHT22;40936;53.008;6.556;2022-12-26T04:57:03;15.20;99.90
55036;DHT22;40936;53.008;6.556;2022-12-26T04:59:29;14.60;99.90
55036;DHT22;40936;53.008;6.556;2022-12-26T05:01:55;14.80;99.90
55036;DHT22;40936;53.008;6.556;2022-12-26T05:04:39;14.90;99.90
55036;DHT22;40936;53.008;6.556;2022-12-26T05:07:29;14.50;99.90
55036;DHT22;40936;53.008;6.556;2022-12-26T05:10:18;14.60;99.90
55036;DHT22;40936;53.008;6.556;2022-12-26T05:12:44;14.60;99.90
55036;DHT22;40936;53.008;6.556;2022-12-26T05:15:10;14.90;99.90
55036;DHT22;40936;53.008;6.556;2022-12-26T05:17:35;14.60;99.90
55036;DHT22;40936;53.008;6.556;2022-12-26T05:20:20;14.80;99.90
55036;DHT22;40936;53.008;6.556;2022-12-26T05:23:06;14.60;99.90
55036;DHT22;40936;53.008;6.556;2022-12-26T05:25:54;15.00;99.90
55036;DHT22;40936;53.008;6.556;2022-12-26T05:28:39;14.70;99.90
55036;DHT22;40936;53.008;6.556;2022-12-26T05:31:14;14.60;99.90
55036;DHT22;40936;53.008;6.556;2022-12-26T05:33:40;14.60;99.90
55036;DHT22;40936;53.008;6.556;2022-12-26T05:36:29;14.60;99.90
55036;DHT22;40936;53.008;6.556;2022-12-26T05:38:55;14.90;99.90
55036;DHT22;40936;53.008;6.556;2022-12-26T05:41:22;14.30;99.90
55036;DHT22;40936;53.008;6.556;2022-12-26T05:43:48;14.30;99.90
55036;DHT22;40936;53.008;6.556;2022-12-26T05:46:14;14.90;99.90
55036;DHT22;40936;53.008;6.556;2022-12-26T05:48:39;14.40;99.90
55036;DHT22;40936;53.008;6.556;2022-12-26T05:51:05;14.90;99.90
55036;DHT22;40936;53.008;6.556;2022-12-26T05:53:34;14.30;99.90
55036;DHT22;40936;53.008;6.556;2022-12-26T05:56:04;14.80;99.90
55036;DHT22;40936;53.008;6.556;2022-12-26T06:01:11;14.70;99.90
55036;DHT22;40936;53.008;6.556;2022-12-26T06:03:38;14.30;99.90
55036;DHT22;40936;53.008;6.556;2022-12-26T06:06:05;14.50;99.90
55036;DHT22;40936;53.008;6.556;2022-12-26T06:08:31;14.80;99.90
55036;DHT22;40936;53.008;6.556;2022-12-26T06:10:57;14.40;99.90
55036;DHT22;40936;53.008;6.556;2022-12-26T06:13:23;14.90;99.90
55036;DHT22;40936;53.008;6.556;2022-12-26T06:15:48;14.30;99.90
55036;DHT22;40936;53.008;6.556;2022-12-26T06:18:14;14.80;99.90
55036;DHT22;40936;53.008;6.556;2022-12-26T06:20:40;14.90;99.90
55036;DHT22;40936;53.008;6.556;2022-12-26T06:23:06;14.90;99.90
55036;DHT22;40936;53.008;6.556;2022-12-26T06:25:31;14.90;99.90
55036;DHT22;40936;53.008;6.556;2022-12-26T06:27:57;14.70;99.90
55036;DHT22;40936;53.008;6.556;2022-12-26T06:30:23;14.70;99.90
55036;DHT22;40936;53.008;6.556;2022-12-26T06:32:49;14.80;99.90
55036;DHT22;40936;53.008;6.556;2022-12-26T06:35:14;14.80;99.90
55036;DHT22;40936;53.008;6.556;2022-12-26T06:37:40;14.50;99.90
55036;DHT22;40936;53.008;6.556;2022-12-26T06:40:06;15.00;99.90
55036;DHT22;40936;53.008;6.556;2022-12-26T06:42:32;14.90;99.90
55036;DHT22;40936;53.008;6.556;2022-12-26T06:44:58;15.00;99.90
55036;DHT22;40936;53.008;6.556;2022-12-26T06:47:23;14.40;99.90
55036;DHT22;40936;53.008;6.556;2022-12-26T06:49:49;15.00;99.90
55036;DHT22;40936;53.008;6.556;2022-12-26T06:52:15;14.80;99.90
55036;DHT22;40936;53.008;6.556;2022-12-26T06:54:41;15.00;99.90
55036;DHT22;40936;53.008;6.556;2022-12-26T06:57:07;15.00;99.90
55036;DHT22;40936;53.008;6.556;2022-12-26T06:59:32;14.80;99.90
55036;DHT22;40936;53.008;6.556;2022-12-26T07:01:59;14.60;99.90
55036;DHT22;40936;53.008;6.556;2022-12-26T07:04:25;14.30;99.90
55036;DHT22;40936;53.008;6.556;2022-12-26T07:06:50;14.90;99.90
55036;DHT22;40936;53.008;6.556;2022-12-26T07:09:17;14.30;99.90
55036;DHT22;40936;53.008;6.556;2022-12-26T07:11:48;14.80;99.90
55036;DHT22;40936;53.008;6.556;2022-12-26T07:14:14;14.30;99.90
55036;DHT22;40936;53.008;6.556;2022-12-26T07:16:41;14.60;99.90
55036;DHT22;40936;53.008;6.556;2022-12-26T07:19:10;14.90;99.90
55036;DHT22;40936;53.008;6.556;2022-12-26T07:21:37;14.40;99.90
55036;DHT22;40936;53.008;6.556;2022-12-26T07:24:02;14.80;99.90
55036;DHT22;40936;53.008;6.556;2022-12-26T07:26:28;15.00;99.90
55036;DHT22;40936;53.008;6.556;2022-12-26T07:28:55;15.00;99.90
55036;DHT22;40936;53.008;6.556;2022-12-26T07:31:22;15.00;99.90
55036;DHT22;40936;53.008;6.556;2022-12-26T07:33:49;15.00;99.90
55036;DHT22;40936;53.008;6.556;2022-12-26T07:36:15;14.30;99.90
55036;DHT22;40936;53.008;6.556;2022-12-26T07:38:42;14.40;99.90
55036;DHT22;40936;53.008;6.556;2022-12-26T07:41:07;14.40;99.90
55036;DHT22;40936;53.008;6.556;2022-12-26T07:43:52;14.40;99.90
55036;DHT22;40936;53.008;6.556;2022-12-26T07:46:18;14.40;99.90
55036;DHT22;40936;53.008;6.556;2022-12-26T07:48:44;15.00;99.90
55036;DHT22;40936;53.008;6.556;2022-12-26T07:51:09;14.50;99.90
55036;DHT22;40936;53.008;6.556;2022-12-26T07:53:35;14.90;99.90
55036;DHT22;40936;53.008;6.556;2022-12-26T07:56:01;14.70;99.90
55036;DHT22;40936;53.008;6.556;2022-12-26T07:58:27;14.80;99.90
55036;DHT22;40936;53.008;6.556;2022-12-26T08:00:52;14.70;99.90
55036;DHT22;40936;53.008;6.556;2022-12-26T08:03:19;14.90;99.90
55036;DHT22;40936;53.008;6.556;2022-12-26T08:05:46;14.20;99.90
55036;DHT22;40936;53.008;6.556;2022-12-26T08:08:12;14.20;99.90
55036;DHT22;40936;53.008;6.556;2022-12-26T08:10:38;14.80;99.90
55036;DHT22;40936;53.008;6.556;2022-12-26T08:13:04;14.80;99.90
55036;DHT22;40936;53.008;6.556;2022-12-26T08:15:30;14.60;99.90
55036;DHT22;40936;53.008;6.556;2022-12-26T08:17:55;14.60;99.90
55036;DHT22;40936;53.008;6.556;2022-12-26T08:20:21;14.60;99.90
55036;DHT22;40936;53.008;6.556;2022-12-26T08:22:47;14.70;99.90
55036;DHT22;40936;53.008;6.556;2022-12-26T08:25:12;14.70;99.90
55036;DHT22;40936;53.008;6.556;2022-12-26T08:27:38;13.30;99.90
55036;DHT22;40936;53.008;6.556;2022-12-26T08:30:04;14.40;99.90
55036;DHT22;40936;53.008;6.556;2022-12-26T08:32:30;14.90;99.90
55036;DHT22;40936;53.008;6.556;2022-12-26T08:34:56;14.30;99.90
55036;DHT22;40936;53.008;6.556;2022-12-26T08:37:21;14.90;99.90
55036;DHT22;40936;53.008;6.556;2022-12-26T08:39:50;14.30;99.90
55036;DHT22;40936;53.008;6.556;2022-12-26T08:42:17;14.70;99.90
55036;DHT22;40936;53.008;6.556;2022-12-26T08:44:43;14.70;99.90
55036;DHT22;40936;53.008;6.556;2022-12-26T08:47:09;14.40;99.90
55036;DHT22;40936;53.008;6.556;2022-12-26T08:49:34;14.20;99.90
55036;DHT22;40936;53.008;6.556;2022-12-26T08:52:00;14.90;99.90
55036;DHT22;40936;53.008;6.556;2022-12-26T08:54:26;14.50;99.90
55036;DHT22;40936;53.008;6.556;2022-12-26T08:56:52;15.00;99.90
55036;DHT22;40936;53.008;6.556;2022-12-26T08:59:17;14.80;99.90
55036;DHT22;40936;53.008;6.556;2022-12-26T09:01:43;14.90;99.90
55036;DHT22;40936;53.008;6.556;2022-12-26T09:04:09;15.00;99.90
55036;DHT22;40936;53.008;6.556;2022-12-26T09:06:36;14.30;99.90
55036;DHT22;40936;53.008;6.556;2022-12-26T09:09:03;14.30;99.90
55036;DHT22;40936;53.008;6.556;2022-12-26T09:11:30;15.00;99.90
55036;DHT22;40936;53.008;6.556;2022-12-26T09:13:58;14.30;99.90
55036;DHT22;40936;53.008;6.556;2022-12-26T09:16:28;14.80;99.90
55036;DHT22;40936;53.008;6.556;2022-12-26T09:19:00;14.60;99.90
55036;DHT22;40936;53.008;6.556;2022-12-26T09:21:27;15.90;99.90
55036;DHT22;40936;53.008;6.556;2022-12-26T09:24:02;15.00;99.90
55036;DHT22;40936;53.008;6.556;2022-12-26T09:26:28;14.90;99.90
55036;DHT22;40936;53.008;6.556;2022-12-26T09:28:54;14.40;99.90
55036;DHT22;40936;53.008;6.556;2022-12-26T09:31:22;14.40;99.90
55036;DHT22;40936;53.008;6.556;2022-12-26T09:33:49;15.20;99.90
55036;DHT22;40936;53.008;6.556;2022-12-26T09:36:17;14.90;99.90
55036;DHT22;40936;53.008;6.556;2022-12-26T09:38:44;14.80;99.90
55036;DHT22;40936;53.008;6.556;2022-12-26T09:41:18;14.80;99.90
55036;DHT22;40936;53.008;6.556;2022-12-26T09:46:40;14.60;99.90
55036;DHT22;40936;53.008;6.556;2022-12-26T09:49:12;15.00;99.90
55036;DHT22;40936;53.008;6.556;2022-12-26T09:51:43;15.00;99.90
55036;DHT22;40936;53.008;6.556;2022-12-26T09:54:59;14.40;99.90
55036;DHT22;40936;53.008;6.556;2022-12-26T09:57:11;14.80;99.90
55036;DHT22;40936;53.008;6.556;2022-12-26T09:59:56;15.30;99.90
55036;DHT22;40936;53.008;6.556;2022-12-26T10:02:23;14.30;99.90
55036;DHT22;40936;53.008;6.556;2022-12-26T10:04:50;14.20;99.90
55036;DHT22;40936;53.008;6.556;2022-12-26T10:07:27;14.60;99.90
55036;DHT22;40936;53.008;6.556;2022-12-26T10:10:10;14.60;99.90
55036;DHT22;40936;53.008;6.556;2022-12-26T10:23:02;13.30;99.90
55036;DHT22;40936;53.008;6.556;2022-12-26T10:26:02;14.10;99.90
55036;DHT22;40936;53.008;6.556;2022-12-26T10:31:39;13.40;99.90
55036;DHT22;40936;53.008;6.556;2022-12-26T10:37:17;13.40;99.90
55036;DHT22;40936;53.008;6.556;2022-12-26T10:42:44;11.60;99.90
55036;DHT22;40936;53.008;6.556;2022-12-26T10:45:21;13.80;99.90
55036;DHT22;40936;53.008;6.556;2022-12-26T10:47:51;13.90;99.90
55036;DHT22;40936;53.008;6.556;2022-12-26T10:50:30;13.40;99.90
55036;DHT22;40936;53.008;6.556;2022-12-26T10:52:57;13.80;99.90
55036;DHT22;40936;53.008;6.556;2022-12-26T10:55:34;13.20;99.90
55036;DHT22;40936;53.008;6.556;2022-12-26T10:58:05;13.10;99.90
55036;DHT22;40936;53.008;6.556;2022-12-26T11:00:36;13.10;99.90
55036;DHT22;40936;53.008;6.556;2022-12-26T11:03:10;14.00;99.90
55036;DHT22;40936;53.008;6.556;2022-12-26T11:05:48;13.80;99.90
55036;DHT22;40936;53.008;6.556;2022-12-26T11:10:42;13.80;99.90
55036;DHT22;40936;53.008;6.556;2022-12-26T11:13:20;13.20;99.90
55036;DHT22;40936;53.008;6.556;2022-12-26T11:15:49;13.50;99.90
55036;DHT22;40936;53.008;6.556;2022-12-26T11:18:21;13.10;99.90
55036;DHT22;40936;53.008;6.556;2022-12-26T11:20:48;13.50;99.90
55036;DHT22;40936;53.008;6.556;2022-12-26T11:23:21;13.70;99.90
55036;DHT22;40936;53.008;6.556;2022-12-26T11:25:55;13.00;99.90
55036;DHT22;40936;53.008;6.556;2022-12-26T11:28:34;13.50;99.90
55036;DHT22;40936;53.008;6.556;2022-12-26T11:31:02;13.60;99.90
55036;DHT22;40936;53.008;6.556;2022-12-26T11:33:38;13.70;99.90
55036;DHT22;40936;53.008;6.556;2022-12-26T11:38:52;12.90;99.90
55036;DHT22;40936;53.008;6.556;2022-12-26T11:44:17;13.50;99.90
55036;DHT22;40936;53.008;6.556;2022-12-26T11:46:59;12.80;99.90
55036;DHT22;40936;53.008;6.556;2022-12-26T11:49:36;13.50;99.90
55036;DHT22;40936;53.008;6.556;2022-12-26T12:00:27;13.10;99.90
55036;DHT22;40936;53.008;6.556;2022-12-26T12:02:53;13.10;99.90
55036;DHT22;40936;53.008;6.556;2022-12-26T12:18:56;12.60;99.90
55036;DHT22;40936;53.008;6.556;2022-12-26T12:27:00;12.80;99.90
55036;DHT22;40936;53.008;6.556;2022-12-26T12:40:28;12.50;99.90
55036;DHT22;40936;53.008;6.556;2022-12-26T12:43:18;13.10;99.90
55036;DHT22;40936;53.008;6.556;2022-12-26T12:48:52;12.70;99.90
55036;DHT22;40936;53.008;6.556;2022-12-26T12:51:32;12.80;99.90
55036;DHT22;40936;53.008;6.556;2022-12-26T12:59:47;13.30;99.90
55036;DHT22;40936;53.008;6.556;2022-12-26T13:07:53;12.90;99.90
55036;DHT22;40936;53.008;6.556;2022-12-26T13:10:31;12.90;99.90
55036;DHT22;40936;53.008;6.556;2022-12-26T13:13:06;12.30;99.90
55036;DHT22;40936;53.008;6.556;2022-12-26T13:15:39;12.50;99.90
55036;DHT22;40936;53.008;6.556;2022-12-26T13:18:16;12.50;99.90
55036;DHT22;40936;53.008;6.556;2022-12-26T13:20:49;11.00;99.90
55036;DHT22;40936;53.008;6.556;2022-12-26T13:23:32;12.50;99.90
55036;DHT22;40936;53.008;6.556;2022-12-26T13:26:27;12.50;99.90
55036;DHT22;40936;53.008;6.556;2022-12-26T13:29:15;12.20;99.90
55036;DHT22;40936;53.008;6.556;2022-12-26T13:31:42;12.50;99.90
55036;DHT22;40936;53.008;6.556;2022-12-26T13:34:13;12.20;99.90
55036;DHT22;40936;53.008;6.556;2022-12-26T13:36:48;12.10;99.90
55036;DHT22;40936;53.008;6.556;2022-12-26T13:41:55;11.90;99.90
55036;DHT22;40936;53.008;6.556;2022-12-26T13:44:41;12.20;99.90
55036;DHT22;40936;53.008;6.556;2022-12-26T13:53:03;11.80;99.90
55036;DHT22;40936;53.008;6.556;2022-12-26T13:55:40;12.00;99.90
55036;DHT22;40936;53.008;6.556;2022-12-26T14:19:04;12.00;99.90
55036;DHT22;40936;53.008;6.556;2022-12-26T14:27:36;11.90;99.90
55036;DHT22;40936;53.008;6.556;2022-12-26T14:32:47;11.70;99.90
55036;DHT22;40936;53.008;6.556;2022-12-26T14:41:05;11.40;99.90
55036;DHT22;40936;53.008;6.556;2022-12-26T14:43:37;11.50;99.90
55036;DHT22;40936;53.008;6.556;2022-12-26T14:49:16;11.50;99.90
55036;DHT22;40936;53.008;6.556;2022-12-26T14:51:43;11.30;99.90
55036;DHT22;40936;53.008;6.556;2022-12-26T14:54:16;11.30;99.90
55036;DHT22;40936;53.008;6.556;2022-12-26T14:56:48;11.30;99.90
55036;DHT22;40936;53.008;6.556;2022-12-26T15:04:53;10.90;99.90
55036;DHT22;40936;53.008;6.556;2022-12-26T15:16:20;11.40;99.90
55036;DHT22;40936;53.008;6.556;2022-12-26T15:19:08;11.30;99.90
55036;DHT22;40936;53.008;6.556;2022-12-26T15:30:16;11.20;99.90
55036;DHT22;40936;53.008;6.556;2022-12-26T15:33:05;11.10;99.90
55036;DHT22;40936;53.008;6.556;2022-12-26T15:35:45;12.50;99.90
55036;DHT22;40936;53.008;6.556;2022-12-26T15:38:31;11.10;99.90
55036;DHT22;40936;53.008;6.556;2022-12-26T15:41:12;10.80;99.90
55036;DHT22;40936;53.008;6.556;2022-12-26T15:46:34;11.00;99.90
55036;DHT22;40936;53.008;6.556;2022-12-26T15:51:57;11.00;99.90
55036;DHT22;40936;53.008;6.556;2022-12-26T15:57:37;10.90;99.90
55036;DHT22;40936;53.008;6.556;2022-12-26T16:02:47;10.80;99.90
55036;DHT22;40936;53.008;6.556;2022-12-26T16:05:48;10.70;99.90
55036;DHT22;40936;53.008;6.556;2022-12-26T16:11:16;11.40;99.90
55036;DHT22;40936;53.008;6.556;2022-12-26T16:13:54;11.40;99.90
55036;DHT22;40936;53.008;6.556;2022-12-26T16:16:35;10.60;99.90
55036;DHT22;40936;53.008;6.556;2022-12-26T16:19:23;9.20;99.90
55036;DHT22;40936;53.008;6.556;2022-12-26T16:22:00;11.50;99.90
55036;DHT22;40936;53.008;6.556;2022-12-26T16:24:46;10.60;99.90
55036;DHT22;40936;53.008;6.556;2022-12-26T16:27:18;9.70;99.90
55036;DHT22;40936;53.008;6.556;2022-12-26T16:29:50;10.50;99.90
55036;DHT22;40936;53.008;6.556;2022-12-26T16:32:20;10.90;99.90
55036;DHT22;40936;53.008;6.556;2022-12-26T16:34:47;10.60;99.90
55036;DHT22;40936;53.008;6.556;2022-12-26T16:37:18;11.00;99.90
55036;DHT22;40936;53.008;6.556;2022-12-26T16:39:46;10.50;99.90
55036;DHT22;40936;53.008;6.556;2022-12-26T16:42:30;12.00;99.90
55036;DHT22;40936;53.008;6.556;2022-12-26T16:47:31;9.10;99.90
55036;DHT22;40936;53.008;6.556;2022-12-26T16:49:58;10.40;99.90
55036;DHT22;40936;53.008;6.556;2022-12-26T16:52:35;11.00;99.90
55036;DHT22;40936;53.008;6.556;2022-12-26T16:55:22;12.60;99.90
55036;DHT22;40936;53.008;6.556;2022-12-26T16:57:51;10.70;99.90
55036;DHT22;40936;53.008;6.556;2022-12-26T17:00:19;13.10;99.90
55036;DHT22;40936;53.008;6.556;2022-12-26T17:02:48;9.90;99.90
55036;DHT22;40936;53.008;6.556;2022-12-26T17:05:32;10.50;99.90
55036;DHT22;40936;53.008;6.556;2022-12-26T17:08:00;10.50;99.90
55036;DHT22;40936;53.008;6.556;2022-12-26T17:10:32;10.50;99.90
55036;DHT22;40936;53.008;6.556;2022-12-26T17:13:02;10.10;99.90
55036;DHT22;40936;53.008;6.556;2022-12-26T17:15:31;9.90;99.90
55036;DHT22;40936;53.008;6.556;2022-12-26T17:23:36;10.30;99.90
55036;DHT22;40936;53.008;6.556;2022-12-26T17:26:20;11.40;99.90
55036;DHT22;40936;53.008;6.556;2022-12-26T17:31:39;9.90;99.90
55036;DHT22;40936;53.008;6.556;2022-12-26T17:34:13;12.80;99.90
55036;DHT22;40936;53.008;6.556;2022-12-26T17:36:39;10.20;99.90
55036;DHT22;40936;53.008;6.556;2022-12-26T17:39:23;13.10;99.90
55036;DHT22;40936;53.008;6.556;2022-12-26T17:42:00;11.60;99.90
55036;DHT22;40936;53.008;6.556;2022-12-26T17:44:40;11.40;99.90
55036;DHT22;40936;53.008;6.556;2022-12-26T17:47:22;10.40;99.90
55036;DHT22;40936;53.008;6.556;2022-12-26T17:49:50;12.20;99.90
55036;DHT22;40936;53.008;6.556;2022-12-26T17:52:19;10.00;99.90
55036;DHT22;40936;53.008;6.556;2022-12-26T17:54:47;10.10;99.90
55036;DHT22;40936;53.008;6.556;2022-12-26T17:57:22;10.10;99.90
55036;DHT22;40936;53.008;6.556;2022-12-26T17:59:49;10.40;99.90
55036;DHT22;40936;53.008;6.556;2022-12-26T18:02:16;11.80;99.90
55036;DHT22;40936;53.008;6.556;2022-12-26T18:04:42;11.30;99.90
55036;DHT22;40936;53.008;6.556;2022-12-26T18:07:18;8.10;99.90
55036;DHT22;40936;53.008;6.556;2022-12-26T18:10:24;9.90;99.90
55036;DHT22;40936;53.008;6.556;2022-12-26T18:12:51;11.00;99.90
55036;DHT22;40936;53.008;6.556;2022-12-26T18:15:17;9.40;99.90
55036;DHT22;40936;53.008;6.556;2022-12-26T18:17:44;9.50;99.90
55036;DHT22;40936;53.008;6.556;2022-12-26T18:20:16;9.90;99.90
55036;DHT22;40936;53.008;6.556;2022-12-26T18:25:12;12.80;99.90
55036;DHT22;40936;53.008;6.556;2022-12-26T18:32:32;9.90;99.90
55036;DHT22;40936;53.008;6.556;2022-12-26T18:34:58;10.10;99.90
55036;DHT22;40936;53.008;6.556;2022-12-26T18:37:26;9.80;99.90
55036;DHT22;40936;53.008;6.556;2022-12-26T18:39:52;8.80;99.90
55036;DHT22;40936;53.008;6.556;2022-12-26T18:42:19;8.20;99.90
55036;DHT22;40936;53.008;6.556;2022-12-26T18:47:12;7.80;99.90
55036;DHT22;40936;53.008;6.556;2022-12-26T18:49:39;10.70;99.90
55036;DHT22;40936;53.008;6.556;2022-12-26T18:52:05;11.30;99.90
55036;DHT22;40936;53.008;6.556;2022-12-26T18:54:31;10.40;99.90
55036;DHT22;40936;53.008;6.556;2022-12-26T18:56:57;9.80;99.90
55036;DHT22;40936;53.008;6.556;2022-12-26T18:59:23;13.60;99.90
55036;DHT22;40936;53.008;6.556;2022-12-26T19:01:49;7.90;99.90
55036;DHT22;40936;53.008;6.556;2022-12-26T19:04:15;8.00;99.90
55036;DHT22;40936;53.008;6.556;2022-12-26T19:06:41;9.70;99.90
55036;DHT22;40936;53.008;6.556;2022-12-26T19:09:11;9.60;99.90
55036;DHT22;40936;53.008;6.556;2022-12-26T19:11:38;11.10;99.90
55036;DHT22;40936;53.008;6.556;2022-12-26T19:14:05;10.10;99.90
55036;DHT22;40936;53.008;6.556;2022-12-26T19:16:36;9.60;99.90
55036;DHT22;40936;53.008;6.556;2022-12-26T19:19:03;7.90;99.90
55036;DHT22;40936;53.008;6.556;2022-12-26T19:26:21;8.80;99.90
55036;DHT22;40936;53.008;6.556;2022-12-26T19:28:50;10.90;99.90
55036;DHT22;40936;53.008;6.556;2022-12-26T19:38:35;9.70;99.90
55036;DHT22;40936;53.008;6.556;2022-12-26T19:41:09;10.40;99.90
55036;DHT22;40936;53.008;6.556;2022-12-26T19:43:36;10.30;99.90
55036;DHT22;40936;53.008;6.556;2022-12-26T19:46:07;9.80;99.90
55036;DHT22;40936;53.008;6.556;2022-12-26T19:48:34;9.90;99.90
55036;DHT22;40936;53.008;6.556;2022-12-26T19:51:09;11.80;99.90
55036;DHT22;40936;53.008;6.556;2022-12-26T19:53:36;10.00;99.90
55036;DHT22;40936;53.008;6.556;2022-12-26T19:56:18;10.00;99.90
55036;DHT22;40936;53.008;6.556;2022-12-26T20:03:41;8.50;99.90
55036;DHT22;40936;53.008;6.556;2022-12-26T20:06:09;10.20;99.90
55036;DHT22;40936;53.008;6.556;2022-12-26T20:08:35;10.50;99.90